Time;durP1;ratioP1;P1;durP2;ratioP2;P2;SDS_P1;SDS_P2;PMS_P1;PMS_P2;Temp;Humidity;BMP_temperature;BMP_pressure;BME280_temperature;BME280_humidity;BME280_pressure;Samples;Min_cycle;Max_cycle;Signal;HPM_P1;HPM_P2
2023/10/19 00:00:20;;;;;;;9.70;8.70;;;;;;;7.01;100.00;62719.19;4988990;28;20208;-75
2023/10/19 00:02:53;;;;;;;11.48;9.30;;;;;;;7.02;100.00;62720.75;4998107;28;20267;-76
2023/10/19 00:05:21;;;;;;;10.82;9.63;;;;;;;7.02;100.00;62722.75;5004404;28;20208;-75
2023/10/19 00:07:47;;;;;;;11.07;8.57;;;;;;;7.08;100.00;62726.41;4987954;28;20271;-75
2023/10/19 00:10:16;;;;;;;11.73;10.02;;;;;;;7.11;100.00;62729.50;4996974;28;20202;-73
2023/10/19 00:12:52;;;;;;;10.85;8.70;;;;;;;7.06;100.00;62723.84;5005629;28;20226;-75
2023/10/19 00:15:24;;;;;;;9.82;8.43;;;;;;;7.12;100.00;62727.50;5000163;28;20219;-76
2023/10/19 00:17:54;;;;;;;10.60;9.50;;;;;;;7.15;100.00;62730.59;5007411;28;20219;-74
2023/10/19 00:20:47;;;;;;;10.50;9.43;;;;;;;7.19;100.00;62740.31;5009168;28;20425;-74
2023/10/19 00:23:18;;;;;;;10.68;8.85;;;;;;;7.31;100.00;62749.63;5001456;28;20290;-74
2023/10/19 00:25:50;;;;;;;10.43;9.02;;;;;;;7.45;100.00;62762.06;4992298;28;20507;-74
2023/10/19 00:28:17;;;;;;;11.57;9.23;;;;;;;7.54;100.00;62773.88;5005088;28;20223;-73
2023/10/19 00:30:49;;;;;;;10.05;9.05;;;;;;;7.58;100.00;62775.47;5006529;28;20203;-77
2023/10/19 00:33:20;;;;;;;10.65;9.07;;;;;;;7.67;100.00;62787.31;4997127;28;20390;-73
2023/10/19 00:35:59;;;;;;;10.63;8.98;;;;;;;7.72;100.00;62797.53;4987720;28;20535;-74
2023/10/19 00:38:39;;;;;;;11.07;9.32;;;;;;;7.78;100.00;62805.75;5002680;28;20566;-75
2023/10/19 00:41:11;;;;;;;11.25;9.43;;;;;;;7.82;100.00;62805.31;4987073;28;20192;-75
2023/10/19 00:43:44;;;;;;;11.00;8.52;;;;;;;7.83;100.00;62806.38;5001320;28;20274;-76
2023/10/19 00:46:20;;;;;;;10.52;9.43;;;;;;;7.89;100.00;62809.50;5005694;28;20214;-75
2023/10/19 00:48:50;;;;;;;12.20;9.63;;;;;;;7.87;100.00;62805.41;5001296;28;20254;-75
2023/10/19 00:51:41;;;;;;;10.10;8.85;;;;;;;7.93;100.00;62811.63;5006646;28;20215;-75
2023/10/19 00:54:13;;;;;;;10.60;8.65;;;;;;;7.96;100.00;62819.25;5003398;28;20504;-75
2023/10/19 00:56:47;;;;;;;12.07;8.93;;;;;;;8.02;100.00;62820.91;5006357;28;20293;-76
2023/10/19 00:59:20;;;;;;;10.70;9.60;;;;;;;8.08;100.00;62829.13;5010845;28;20262;-74
2023/10/19 01:01:53;;;;;;;10.32;9.13;;;;;;;8.15;100.00;62841.94;4997251;28;20287;-74
2023/10/19 01:04:22;;;;;;;10.57;9.50;;;;;;;8.23;100.00;62842.09;5005354;28;20338;-76
2023/10/19 01:07:00;;;;;;;12.55;9.65;;;;;;;8.26;100.00;62842.66;5006261;28;20258;-76
2023/10/19 01:09:28;;;;;;;9.45;8.52;;;;;;;8.33;100.00;62857.50;5004640;28;20213;-75
2023/10/19 01:11:58;;;;;;;10.43;9.10;;;;;;;8.37;100.00;62861.13;5000548;28;20255;-74
2023/10/19 01:14:27;;;;;;;11.18;9.40;;;;;;;8.36;100.00;62857.53;4990980;28;20204;-75
2023/10/19 01:16:56;;;;;;;10.55;9.52;;;;;;;8.41;100.00;62860.16;4985956;28;20240;-73
2023/10/19 01:19:23;;;;;;;9.57;8.50;;;;;;;8.46;100.00;62867.88;4986041;28;20209;-74
2023/10/19 01:21:53;;;;;;;11.15;9.65;;;;;;;8.49;100.00;62871.47;5014446;28;20243;-75
2023/10/19 01:24:33;;;;;;;10.77;9.68;;;;;;;8.49;100.00;62873.50;4996823;28;20196;-74
2023/10/19 01:27:00;;;;;;;12.25;10.38;;;;;;;8.55;100.00;62874.63;4986041;28;20219;-74
2023/10/19 01:29:28;;;;;;;11.75;9.60;;;;;;;8.62;100.00;62881.84;4999992;28;20270;-73
2023/10/19 01:31:56;;;;;;;12.32;10.48;;;;;;;8.61;100.00;62888.44;4998401;28;20282;-75
2023/10/19 01:34:26;;;;;;;16.65;12.70;;;;;;;8.69;100.00;62894.16;4995574;28;20235;-75
2023/10/19 01:36:55;;;;;;;17.17;13.25;;;;;;;8.71;100.00;62893.69;4992178;28;20227;-73
2023/10/19 01:39:23;;;;;;;18.75;13.02;;;;;;;8.65;100.00;62879.88;5005599;28;20241;-76
2023/10/19 01:41:50;;;;;;;13.38;11.10;;;;;;;8.73;100.00;62893.72;5004576;28;20245;-74
2023/10/19 01:44:16;;;;;;;17.92;12.32;;;;;;;8.67;100.00;62895.16;5004588;28;20207;-74
2023/10/19 01:46:45;;;;;;;18.25;13.20;;;;;;;8.67;100.00;62895.16;5004665;28;20222;-74
2023/10/19 01:49:11;;;;;;;15.32;11.13;;;;;;;8.63;100.00;62887.97;4989145;28;20387;-74
2023/10/19 01:51:39;;;;;;;17.48;12.82;;;;;;;8.63;100.00;62880.38;5003912;28;20207;-74
2023/10/19 01:54:06;;;;;;;17.38;12.20;;;;;;;8.64;100.00;62892.06;5000863;28;20572;-75
2023/10/19 01:56:35;;;;;;;16.67;11.73;;;;;;;8.57;100.00;62877.22;5001441;28;20263;-76
2023/10/19 01:59:03;;;;;;;14.52;11.50;;;;;;;8.52;100.00;62874.59;4991143;28;20204;-75
2023/10/19 02:01:32;;;;;;;17.10;12.68;;;;;;;8.54;100.00;62874.09;4995961;28;20230;-75
2023/10/19 02:04:01;;;;;;;16.27;13.00;;;;;;;8.62;100.00;62886.94;5004179;28;20226;-75
2023/10/19 02:06:34;;;;;;;14.63;12.98;;;;;;;8.61;100.00;62888.44;5000549;28;20380;-76
2023/10/19 02:09:09;;;;;;;19.35;12.60;;;;;;;8.64;100.00;62889.53;4998151;28;20199;-75
2023/10/19 02:11:37;;;;;;;15.65;10.75;;;;;;;8.53;100.00;62875.63;4985973;28;20215;-75
2023/10/19 02:14:13;;;;;;;12.23;10.77;;;;;;;8.56;100.00;62873.13;4996440;28;20206;-75
2023/10/19 02:16:41;;;;;;;13.88;11.48;;;;;;;8.44;100.00;62865.81;5002579;28;20294;-74
2023/10/19 02:19:07;;;;;;;15.45;12.18;;;;;;;8.39;100.00;62855.56;4994046;28;20246;-75
2023/10/19 02:21:39;;;;;;;18.88;13.80;;;;;;;8.49;100.00;62870.97;5007387;28;20266;-76
2023/10/19 02:24:07;;;;;;;54.65;25.45;;;;;;;8.50;100.00;62872.00;5001500;28;20214;-75
2023/10/19 02:26:35;;;;;;;26.02;17.10;;;;;;;8.49;100.00;62868.44;5004684;28;20223;-75
2023/10/19 02:29:07;;;;;;;40.08;20.67;;;;;;;8.61;100.00;62883.38;4993872;28;20244;-75
2023/10/19 02:31:37;;;;;;;27.05;15.98;;;;;;;8.62;100.00;62890.00;4996897;28;20392;-75
2023/10/19 02:34:04;;;;;;;20.77;15.18;;;;;;;8.60;100.00;62884.88;5004445;28;20271;-75
2023/10/19 02:36:33;;;;;;;16.17;12.13;;;;;;;8.55;100.00;62880.22;5006318;28;20242;-75
2023/10/19 02:39:00;;;;;;;16.08;11.73;;;;;;;8.38;100.00;62860.13;5014422;28;20200;-76
2023/10/19 02:41:28;;;;;;;13.57;11.32;;;;;;;8.36;100.00;62857.53;5009918;28;20203;-75
2023/10/19 02:44:01;;;;;;;13.95;11.35;;;;;;;8.28;100.00;62854.34;5012338;28;20356;-75
2023/10/19 02:46:30;;;;;;;13.32;10.48;;;;;;;8.24;100.00;62842.59;5028161;28;20228;-74
2023/10/19 02:48:57;;;;;;;15.57;10.88;;;;;;;8.15;100.00;62838.88;5012555;28;20199;-74
2023/10/19 02:51:24;;;;;;;11.10;9.90;;;;;;;8.13;100.00;62834.81;5009235;28;20270;-75
2023/10/19 02:53:50;;;;;;;10.63;9.55;;;;;;;8.03;100.00;62823.94;5004962;28;20187;-75
2023/10/19 02:56:18;;;;;;;11.55;9.65;;;;;;;7.96;100.00;62817.25;4990342;28;20295;-74
2023/10/19 02:58:48;;;;;;;9.50;8.57;;;;;;;7.87;100.00;62809.97;4996145;28;20459;-74
2023/10/19 03:01:21;;;;;;;10.35;9.25;;;;;;;7.79;100.00;62799.19;5000813;28;20196;-75
2023/10/19 03:03:53;;;;;;;12.02;9.52;;;;;;;7.68;100.00;62785.81;5004099;28;20223;-74
2023/10/19 03:06:21;;;;;;;9.35;8.48;;;;;;;7.53;100.00;62769.81;5004825;28;20274;-78
2023/10/19 03:08:52;;;;;;;10.82;9.25;;;;;;;7.53;100.00;62772.84;4995885;28;20212;-76
2023/10/19 03:11:19;;;;;;;10.35;8.32;;;;;;;7.44;100.00;62766.09;4991479;28;20241;-75
2023/10/19 03:13:50;;;;;;;9.73;8.75;;;;;;;7.38;100.00;62754.31;4998356;28;20243;-76
2023/10/19 03:16:17;;;;;;;10.55;9.55;;;;;;;7.21;100.00;62737.31;5003720;28;20231;-74
2023/10/19 03:18:44;;;;;;;9.95;8.95;;;;;;;7.29;100.00;62745.03;4988030;28;20220;-73
2023/10/19 03:21:11;;;;;;;13.50;10.50;;;;;;;7.28;100.00;62744.53;4995958;28;20204;-75
2023/10/19 03:23:40;;;;;;;12.23;9.52;;;;;;;7.23;100.00;62744.41;4996287;28;20219;-74
2023/10/19 03:26:31;;;;;;;12.13;9.50;;;;;;;7.21;100.00;62744.38;5004877;28;20203;-75
2023/10/19 03:29:02;;;;;;;14.50;9.35;;;;;;;7.20;100.00;62740.81;4995765;28;20203;-75
2023/10/19 03:31:32;;;;;;;11.63;9.65;;;;;;;7.11;100.00;62734.56;5007177;28;20506;-74
2023/10/19 03:34:04;;;;;;;11.90;8.63;;;;;;;7.03;100.00;62724.31;5006834;28;20538;-74
2023/10/19 03:36:33;;;;;;;11.98;10.77;;;;;;;6.95;100.00;62715.53;5005090;28;20230;-74
2023/10/19 03:39:11;;;;;;;10.18;8.93;;;;;;;6.97;100.00;62715.59;4987073;28;20218;-74
2023/10/19 03:41:39;;;;;;;11.45;9.13;;;;;;;6.95;100.00;62713.00;4990323;28;20238;-75
2023/10/19 03:44:07;;;;;;;11.05;9.45;;;;;;;6.89;100.00;62707.34;5003906;28;20239;-74
2023/10/19 03:46:37;;;;;;;10.27;8.13;;;;;;;6.90;100.00;62707.84;5002005;28;20208;-74
2023/10/19 03:49:10;;;;;;;10.95;9.15;;;;;;;6.88;100.00;62703.78;4995942;28;20489;-76
2023/10/19 03:51:57;;;;;;;12.10;9.98;;;;;;;6.72;100.00;62691.81;4989633;28;20504;-75
2023/10/19 03:54:25;;;;;;;13.07;10.65;;;;;;;6.68;100.00;62685.16;5005399;28;20242;-74
2023/10/19 03:56:52;;;;;;;15.07;11.35;;;;;;;6.70;100.00;62687.22;4993733;28;20306;-75
2023/10/19 03:59:21;;;;;;;13.30;11.15;;;;;;;6.70;100.00;62687.75;4987284;28;20218;-76
2023/10/19 04:01:48;;;;;;;13.18;10.18;;;;;;;6.70;100.00;62687.22;5005028;28;20532;-74
2023/10/19 04:04:16;;;;;;;13.10;9.02;;;;;;;6.74;100.00;62691.34;5004191;28;20199;-74
2023/10/19 04:06:47;;;;;;;16.55;10.15;;;;;;;6.72;100.00;62687.28;4997586;28;20239;-74
2023/10/19 04:09:17;;;;;;;11.23;9.35;;;;;;;6.71;100.00;62685.72;5002810;28;20210;-75
2023/10/19 04:11:51;;;;;;;11.90;9.27;;;;;;;6.66;100.00;62683.09;5007429;28;20223;-74
2023/10/19 04:14:20;;;;;;;10.35;9.25;;;;;;;6.61;100.00;62678.44;5003080;28;20488;-75
2023/10/19 04:16:48;;;;;;;12.05;9.00;;;;;;;6.54;100.00;62671.22;5006344;28;20258;-76
2023/10/19 04:19:16;;;;;;;9.63;8.23;;;;;;;6.50;100.00;62664.59;5005945;28;20230;-76
2023/10/19 04:21:46;;;;;;;8.93;8.10;;;;;;;6.46;100.00;62663.00;5017178;28;20242;-75
2023/10/19 04:24:14;;;;;;;10.27;8.57;;;;;;;6.47;100.00;62666.53;5004367;28;20196;-75
2023/10/19 04:26:42;;;;;;;12.88;9.02;;;;;;;6.47;100.00;62666.03;5005532;28;20222;-75
2023/10/19 04:29:11;;;;;;;12.40;10.10;;;;;;;6.44;100.00;62663.44;5006259;28;20317;-76
2023/10/19 04:31:40;;;;;;;12.23;10.52;;;;;;;6.41;100.00;62657.31;5005066;28;20388;-75
2023/10/19 04:34:08;;;;;;;14.02;10.35;;;;;;;6.40;100.00;62656.78;5004418;28;20218;-74
2023/10/19 04:36:36;;;;;;;16.65;10.98;;;;;;;6.42;100.00;62658.34;4987383;28;20232;-77
2023/10/19 04:39:11;;;;;;;17.48;10.35;;;;;;;6.40;100.00;62656.28;4999000;28;20195;-76
2023/10/19 04:41:40;;;;;;;11.68;9.88;;;;;;;6.40;100.00;62656.28;5005920;28;20200;-76
2023/10/19 04:44:08;;;;;;;13.05;10.13;;;;;;;6.39;100.00;62653.25;5006101;28;20195;-76
2023/10/19 04:46:35;;;;;;;12.65;9.52;;;;;;;6.38;100.00;62654.75;5004496;28;20211;-75
2023/10/19 04:49:03;;;;;;;13.85;9.80;;;;;;;6.41;100.00;62657.31;5006761;28;20200;-76
2023/10/19 04:51:30;;;;;;;12.93;10.13;;;;;;;6.33;100.00;62649.59;5006671;28;20230;-75
2023/10/19 04:53:57;;;;;;;14.98;10.00;;;;;;;6.36;100.00;62657.75;5006134;28;20545;-75
2023/10/19 04:56:26;;;;;;;13.00;10.18;;;;;;;6.38;100.00;62659.28;5002105;28;20242;-77
2023/10/19 04:58:53;;;;;;;12.98;10.38;;;;;;;6.37;100.00;62653.69;4997972;28;20206;-77
2023/10/19 05:01:21;;;;;;;12.75;9.50;;;;;;;6.36;100.00;62652.69;5005804;28;20209;-75
2023/10/19 05:03:48;;;;;;;11.93;10.07;;;;;;;6.36;100.00;62655.22;5005960;28;20219;-75
2023/10/19 05:06:15;;;;;;;11.23;9.40;;;;;;;6.35;100.00;62651.63;5006210;28;20199;-75
2023/10/19 05:08:43;;;;;;;12.25;9.73;;;;;;;6.35;100.00;62651.63;5006765;28;20223;-73
2023/10/19 05:11:10;;;;;;;11.07;9.27;;;;;;;6.37;100.00;62653.69;5005202;28;20202;-75
2023/10/19 05:13:38;;;;;;;13.55;10.20;;;;;;;6.34;100.00;62648.09;5005914;28;20282;-77
2023/10/19 05:16:07;;;;;;;13.25;10.85;;;;;;;6.36;100.00;62652.16;5005698;28;20200;-76
2023/10/19 05:18:34;;;;;;;12.15;10.23;;;;;;;6.39;100.00;62653.25;5006254;28;20242;-75
2023/10/19 05:21:01;;;;;;;15.27;11.65;;;;;;;6.50;100.00;62666.59;5017006;28;20202;-76
2023/10/19 05:23:30;;;;;;;13.48;10.27;;;;;;;6.53;100.00;62667.69;5025628;28;20495;-75
2023/10/19 05:26:02;;;;;;;14.05;11.15;;;;;;;6.56;100.00;62675.81;5012344;28;20195;-76
2023/10/19 05:28:29;;;;;;;14.02;11.07;;;;;;;6.64;100.00;62681.53;5005869;28;20223;-77
2023/10/19 05:30:58;;;;;;;13.60;11.18;;;;;;;6.73;100.00;62690.81;5004495;28;20230;-77
2023/10/19 05:33:25;;;;;;;15.52;11.98;;;;;;;6.82;100.00;62705.19;5005742;28;20543;-74
2023/10/19 05:35:53;;;;;;;16.33;11.93;;;;;;;6.91;100.00;62706.88;5006367;28;20398;-75
2023/10/19 05:38:22;;;;;;;16.10;11.98;;;;;;;7.03;100.00;62724.31;5005545;28;20234;-75
2023/10/19 05:40:49;;;;;;;14.38;11.55;;;;;;;7.17;100.00;62735.19;5004781;28;20274;-75
2023/10/19 05:43:17;;;;;;;16.77;12.77;;;;;;;7.35;100.00;62754.28;5006399;28;20219;-75
2023/10/19 05:45:44;;;;;;;17.08;13.45;;;;;;;7.49;100.00;62765.69;5005263;28;20389;-74
2023/10/19 05:48:13;;;;;;;18.75;12.90;;;;;;;7.16;100.00;62734.69;5004875;28;20262;-75
2023/10/19 05:50:40;;;;;;;25.67;15.70;;;;;;;7.11;100.00;62734.56;5005847;28;20205;-78
2023/10/19 05:53:07;;;;;;;22.05;15.35;;;;;;;7.21;100.00;62739.31;5005281;28;20218;-74
2023/10/19 05:55:35;;;;;;;30.73;16.65;;;;;;;7.31;100.00;62752.16;5004883;28;20226;-75
2023/10/19 05:58:04;;;;;;;23.42;17.02;;;;;;;7.30;100.00;62746.06;5005662;28;20235;-74
2023/10/19 06:00:31;;;;;;;24.88;18.05;;;;;;;7.22;100.00;62737.81;5004667;28;20254;-75
2023/10/19 06:02:59;;;;;;;32.55;18.10;;;;;;;7.55;100.00;62769.34;5005184;28;20289;-75
2023/10/19 06:05:27;;;;;;;29.23;18.55;;;;;;;7.70;100.00;62790.41;5006389;28;20421;-75
2023/10/19 06:07:55;;;;;;;25.73;16.70;;;;;;;7.77;100.00;62794.56;5005350;28;20218;-75
2023/10/19 06:10:23;;;;;;;27.23;16.58;;;;;;;7.86;100.00;62806.94;5008728;28;20246;-76
2023/10/19 06:12:52;;;;;;;27.48;17.75;;;;;;;8.04;100.00;62825.50;5009312;28;20219;-75
2023/10/19 06:15:23;;;;;;;29.67;18.65;;;;;;;7.99;100.00;62817.28;5008637;28;20518;-74
2023/10/19 06:17:51;;;;;;;28.00;18.65;;;;;;;7.99;100.00;62815.28;5008883;28;20242;-76
2023/10/19 06:20:23;;;;;;;26.40;18.55;;;;;;;8.38;100.00;62857.06;5014607;28;20202;-74
2023/10/19 06:22:53;;;;;;;23.40;17.35;;;;;;;8.74;100.00;62896.78;5028364;28;20353;-75
2023/10/19 06:25:22;;;;;;;25.95;18.17;;;;;;;8.90;100.00;62915.88;5018098;28;20203;-77
2023/10/19 06:27:52;;;;;;;25.33;16.08;;;;;;;9.18;100.00;62945.31;5008626;28;20471;-75
2023/10/19 06:30:22;;;;;;;25.83;16.20;;;;;;;9.19;100.00;62948.38;5008954;28;20187;-75
2023/10/19 06:32:51;;;;;;;23.50;16.08;;;;;;;9.36;100.00;62963.41;5006994;28;20602;-74
2023/10/19 06:35:19;;;;;;;23.25;16.15;;;;;;;9.42;100.00;62964.03;5008834;28;20231;-75
2023/10/19 06:37:47;;;;;;;21.58;14.77;;;;;;;9.67;100.00;62992.94;5008700;28;20254;-75
2023/10/19 06:40:17;;;;;;;18.63;14.45;;;;;;;9.74;100.00;63000.19;5009013;28;20195;-74
2023/10/19 06:42:45;;;;;;;19.23;14.13;;;;;;;9.83;100.00;63011.50;5008762;28;20215;-76
2023/10/19 06:45:13;;;;;;;18.08;13.70;;;;;;;9.70;100.00;62992.97;5007937;28;20219;-76
2023/10/19 06:47:42;;;;;;;19.15;13.27;;;;;;;9.74;100.00;62994.56;5007685;28;20223;-74
2023/10/19 06:50:11;;;;;;;21.40;14.75;;;;;;;9.78;100.00;63004.31;5010479;28;20206;-76
2023/10/19 06:52:38;;;;;;;20.80;14.27;;;;;;;9.54;100.00;62981.53;5008391;28;20405;-75
2023/10/19 06:55:11;;;;;;;26.23;13.55;;;;;;;9.72;100.00;62995.03;5007812;28;20199;-77
2023/10/19 06:57:40;;;;;;;19.88;12.75;;;;;;;9.86;100.00;63010.03;5008199;28;20438;-75
2023/10/19 07:00:14;;;;;;;17.17;12.75;;;;;;;10.13;100.00;63037.97;5008407;28;20266;-76
2023/10/19 07:02:42;;;;;;;16.10;12.25;;;;;;;10.16;100.00;63046.16;4990950;28;20230;-75
2023/10/19 07:05:11;;;;;;;15.13;11.30;;;;;;;10.43;100.00;63071.06;4988889;28;20200;-74
2023/10/19 07:07:40;;;;;;;18.48;11.95;;;;;;;10.71;100.00;63097.50;4999909;28;20219;-73
2023/10/19 07:10:09;;;;;;;10.68;9.40;;;;;;;10.61;100.00;63087.16;5006079;28;20208;-74
2023/10/19 07:12:37;;;;;;;10.20;9.15;;;;;;;10.66;100.00;63092.31;5007949;28;20219;-74
2023/10/19 07:15:08;;;;;;;10.00;8.45;;;;;;;10.64;100.00;63090.25;5005779;28;20208;-74
2023/10/19 07:17:37;;;;;;;10.73;7.63;;;;;;;10.59;100.00;63087.63;5006329;28;20239;-75
2023/10/19 07:20:06;;;;;;;7.15;6.30;;;;;;;10.63;100.00;63091.25;5006416;28;20382;-75
2023/10/19 07:22:33;;;;;;;7.22;6.40;;;;;;;10.63;100.00;63094.28;5006167;28;20235;-76
2023/10/19 07:25:02;;;;;;;8.40;6.35;;;;;;;10.54;100.00;63085.00;5006506;28;20703;-76
2023/10/19 07:27:29;;;;;;;8.57;6.05;;;;;;;10.94;100.00;63123.34;5007273;28;20223;-76
2023/10/19 07:29:56;;;;;;;13.32;8.27;;;;;;;10.81;100.00;63114.97;5004591;28;20195;-75
2023/10/19 07:32:25;;;;;;;6.82;6.22;;;;;;;10.91;100.00;63123.28;5005832;28;20211;-75
2023/10/19 07:34:52;;;;;;;9.95;5.63;;;;;;;11.09;100.00;63138.84;5008026;28;20266;-73
2023/10/19 07:37:21;;;;;;;7.15;6.32;;;;;;;11.12;100.00;63145.03;5000156;28;20259;-74
2023/10/19 07:39:48;;;;;;;7.25;6.28;;;;;;;11.31;100.00;63164.72;5003222;28;20239;-74
2023/10/19 07:42:16;;;;;;;8.75;6.63;;;;;;;11.59;100.00;63188.63;5001478;28;20234;-74
2023/10/19 07:44:43;;;;;;;6.47;5.88;;;;;;;11.53;100.00;63186.97;4999399;28;20199;-74
2023/10/19 07:47:10;;;;;;;7.28;6.57;;;;;;;11.74;100.00;63208.75;5004442;28;20234;-74
2023/10/19 07:49:39;;;;;;;8.63;7.72;;;;;;;11.96;100.00;63229.00;5000419;28;20214;-74
2023/10/19 07:52:07;;;;;;;8.80;6.55;;;;;;;11.76;100.00;63210.81;5004871;28;20250;-75
2023/10/19 07:54:35;;;;;;;7.43;6.72;;;;;;;11.62;100.00;63196.31;5001546;28;20191;-76
2023/10/19 07:57:05;;;;;;;8.15;6.65;;;;;;;11.43;100.00;63174.59;5002354;28;20435;-75
2023/10/19 07:59:32;;;;;;;7.13;6.45;;;;;;;11.28;100.00;63156.00;5001727;28;20211;-75
2023/10/19 08:02:02;;;;;;;10.02;7.15;;;;;;;11.31;100.00;63162.16;5001932;28;20226;-73
2023/10/19 08:04:29;;;;;;;8.68;6.80;;;;;;;11.34;100.00;63170.38;4995583;28;20200;-75
2023/10/19 08:06:58;;;;;;;8.88;7.22;;;;;;;11.30;100.00;63163.66;4999515;28;20523;-74
2023/10/19 08:09:31;;;;;;;7.78;6.50;;;;;;;11.24;100.00;63154.91;5001603;28;20215;-75
2023/10/19 08:11:59;;;;;;;9.38;7.43;;;;;;;11.28;100.00;63156.00;5002969;28;20266;-75
2023/10/19 08:14:26;;;;;;;8.82;7.47;;;;;;;11.27;100.00;63157.50;5001041;28;20204;-75
2023/10/19 08:16:53;;;;;;;13.95;7.68;;;;;;;11.00;100.00;63132.59;5000355;28;20219;-75
2023/10/19 08:19:21;;;;;;;11.52;8.90;;;;;;;11.04;100.00;63136.22;5001189;28;20565;-74
2023/10/19 08:21:49;;;;;;;14.07;8.80;;;;;;;11.26;100.00;63159.00;5002786;28;20275;-76
2023/10/19 08:24:20;;;;;;;11.90;7.78;;;;;;;11.17;100.00;63150.22;5000964;28;20223;-75
2023/10/19 08:26:46;;;;;;;16.27;8.55;;;;;;;10.84;100.00;63110.94;5002761;28;20282;-75
2023/10/19 08:29:14;;;;;;;13.45;8.40;;;;;;;10.97;100.00;63126.44;5001615;28;20222;-76
2023/10/19 08:31:41;;;;;;;9.95;8.60;;;;;;;10.82;100.00;63111.41;5000235;28;20394;-74
2023/10/19 08:34:10;;;;;;;11.38;8.85;;;;;;;11.12;100.00;63142.47;4999010;28;20208;-75
2023/10/19 08:36:38;;;;;;;12.55;7.50;;;;;;;11.34;100.00;63167.81;5000647;28;20211;-75
2023/10/19 08:39:06;;;;;;;9.65;7.80;;;;;;;11.46;100.00;63180.25;5003378;28;20388;-74
2023/10/19 08:41:37;;;;;;;12.68;8.68;;;;;;;11.41;100.00;63174.53;5001014;28;20233;-76
2023/10/19 08:44:10;;;;;;;9.88;8.40;;;;;;;11.63;100.00;63195.31;4999370;28;20446;-74
2023/10/19 08:46:38;;;;;;;11.23;8.82;;;;;;;11.85;100.00;63217.09;5001798;28;20446;-76
2023/10/19 08:49:05;;;;;;;10.98;8.98;;;;;;;11.98;100.00;63225.44;5003101;28;20207;-75
2023/10/19 08:51:35;;;;;;;9.77;8.20;;;;;;;12.33;100.00;63269.38;5005002;28;20203;-76
2023/10/19 08:54:04;;;;;;;11.88;7.93;;;;;;;12.55;100.00;63289.63;5002680;28;20222;-75
2023/10/19 08:56:31;;;;;;;12.27;8.07;;;;;;;12.52;100.00;63287.03;5001779;28;20234;-74
2023/10/19 08:59:00;;;;;;;10.10;8.18;;;;;;;12.49;100.00;63283.41;5009484;28;20231;-75
2023/10/19 09:01:28;;;;;;;7.97;7.15;;;;;;;12.47;100.00;63279.31;5006081;28;20379;-75
2023/10/19 09:03:58;;;;;;;8.38;7.63;;;;;;;12.38;100.00;63272.53;5001745;28;20207;-75
2023/10/19 09:06:28;;;;;;;6.50;5.95;;;;;;;12.38;100.00;63275.09;5006879;28;20241;-76
2023/10/19 09:08:57;;;;;;;8.15;7.10;;;;;;;12.42;100.00;63276.16;5001549;28;20203;-76
2023/10/19 09:11:25;;;;;;;10.85;8.32;;;;;;;12.28;100.00;63261.66;5002906;28;20202;-77
2023/10/19 09:13:53;;;;;;;8.85;7.47;;;;;;;12.59;100.00;63291.22;5004264;28;20263;-74
2023/10/19 09:16:23;;;;;;;8.07;7.28;;;;;;;12.84;99.43;63324.31;5003043;28;20207;-75
2023/10/19 09:18:51;;;;;;;8.05;6.50;;;;;;;12.87;98.38;63327.41;5001621;28;20230;-75
2023/10/19 09:21:25;;;;;;;6.10;5.63;;;;;;;13.07;98.53;63341.03;5002602;28;20246;-76
2023/10/19 09:23:52;;;;;;;6.55;6.03;;;;;;;13.36;94.67;63370.56;4999850;28;20223;-76
2023/10/19 09:26:21;;;;;;;5.55;5.05;;;;;;;13.75;93.23;63423.84;5004962;28;20207;-76
2023/10/19 09:28:51;;;;;;;5.97;5.50;;;;;;;14.13;90.76;63449.97;5002404;28;20231;-76
2023/10/19 09:31:18;;;;;;;6.80;6.20;;;;;;;14.48;91.52;63491.97;5000277;28;20393;-73
2023/10/19 09:33:48;;;;;;;5.80;5.30;;;;;;;14.74;89.57;63515.91;5001902;28;20281;-76
2023/10/19 09:36:16;;;;;;;4.95;4.55;;;;;;;14.64;83.42;63508.59;5003991;28;20207;-76
2023/10/19 09:38:50;;;;;;;5.32;4.82;;;;;;;14.92;84.85;63532.56;5004050;28;20277;-76
2023/10/19 09:41:19;;;;;;;5.22;4.78;;;;;;;14.75;80.27;63514.38;5003183;28;20441;-75
2023/10/19 09:43:49;;;;;;;5.93;4.75;;;;;;;14.60;81.81;63507.00;5005058;28;20234;-76
2023/10/19 09:46:22;;;;;;;5.25;4.85;;;;;;;14.80;83.20;63527.78;5004378;28;20213;-76
2023/10/19 09:48:51;;;;;;;7.25;5.15;;;;;;;14.71;82.41;63513.31;5003526;28;20261;-76
2023/10/19 09:51:21;;;;;;;7.35;6.30;;;;;;;14.31;83.71;63471.75;5001511;28;20207;-77
2023/10/19 09:53:54;;;;;;;6.85;6.15;;;;;;;14.30;84.84;63470.72;4999100;28;20250;-76
2023/10/19 09:56:26;;;;;;;5.78;5.28;;;;;;;14.47;85.40;63488.38;5004610;28;20199;-76
2023/10/19 09:58:58;;;;;;;6.78;6.15;;;;;;;14.40;85.99;63481.13;4988153;28;20231;-77
2023/10/19 10:01:26;;;;;;;8.52;6.15;;;;;;;14.05;84.72;63444.25;4997136;28;20237;-75
2023/10/19 10:03:57;;;;;;;6.35;5.85;;;;;;;13.99;86.95;63440.56;4999077;28;20207;-76
2023/10/19 10:06:31;;;;;;;6.88;6.18;;;;;;;14.16;87.42;63458.22;5002842;28;20259;-77
2023/10/19 10:09:03;;;;;;;9.27;6.30;;;;;;;14.24;87.32;63466.50;5005880;28;20397;-76
2023/10/19 10:11:30;;;;;;;6.95;6.22;;;;;;;14.28;88.10;63466.09;5005935;28;20203;-77
2023/10/19 10:13:58;;;;;;;8.32;6.45;;;;;;;14.41;85.34;63484.19;5002289;28;20206;-77
2023/10/19 10:16:27;;;;;;;7.70;5.95;;;;;;;14.19;86.46;63461.84;5005617;28;20293;-76
2023/10/19 10:18:59;;;;;;;6.93;5.85;;;;;;;14.32;85.80;63474.84;4991765;28;20420;-77
2023/10/19 10:21:27;;;;;;;6.53;5.82;;;;;;;14.29;84.77;63467.13;5000173;28;20226;-75
2023/10/19 10:23:57;;;;;;;6.95;6.32;;;;;;;14.30;83.89;63475.84;5005120;28;20227;-77
2023/10/19 10:26:26;;;;;;;6.90;6.35;;;;;;;14.14;87.20;63453.56;5005277;28;20211;-76
2023/10/19 10:29:14;;;;;;;6.63;5.70;;;;;;;14.27;86.88;63467.09;5005598;28;20238;-76
2023/10/19 10:31:45;;;;;;;8.20;6.25;;;;;;;14.32;87.16;63474.84;5006997;28;20198;-76
2023/10/19 10:34:43;;;;;;;6.90;6.30;;;;;;;14.39;84.60;63482.63;4992987;28;20214;-76
2023/10/19 10:37:13;;;;;;;6.50;5.97;;;;;;;14.13;85.41;63457.66;5003271;28;20295;-76
2023/10/19 10:39:41;;;;;;;7.78;6.18;;;;;;;14.11;88.14;63453.03;5004971;28;20273;-78
2023/10/19 10:42:10;;;;;;;7.40;6.63;;;;;;;14.24;86.23;63467.03;4987815;28;20231;-75
2023/10/19 10:44:39;;;;;;;8.20;6.28;;;;;;;14.23;84.19;63462.91;4992195;28;20242;-76
2023/10/19 10:47:08;;;;;;;6.72;6.07;;;;;;;14.38;85.85;63481.06;5004801;28;20536;-79
2023/10/19 10:49:47;;;;;;;7.03;6.38;;;;;;;14.63;83.95;63507.03;5005671;28;20207;-75
2023/10/19 10:52:25;;;;;;;7.25;6.43;;;;;;;14.81;83.02;63523.16;5002709;28;20586;-76
2023/10/19 10:54:52;;;;;;;6.35;5.75;;;;;;;14.95;82.42;63537.72;4995557;28;20274;-77
2023/10/19 10:57:23;;;;;;;9.57;6.50;;;;;;;15.16;83.96;63562.09;4992885;28;20258;-77
2023/10/19 11:00:04;;;;;;;6.90;6.20;;;;;;;15.33;82.91;63582.34;5005547;28;20234;-77
2023/10/19 11:02:31;;;;;;;7.50;6.90;;;;;;;15.56;81.28;63601.13;5008949;28;20226;-77
2023/10/19 11:05:00;;;;;;;6.53;5.88;;;;;;;15.66;78.39;63611.53;5003933;28;20202;-76
2023/10/19 11:07:27;;;;;;;6.25;5.65;;;;;;;15.65;78.95;63615.09;5009390;28;20238;-79
2023/10/19 11:09:54;;;;;;;6.80;5.45;;;;;;;15.85;76.69;63631.28;5009235;28;20199;-77
2023/10/19 11:12:21;;;;;;;7.50;6.68;;;;;;;15.91;77.99;63634.94;5008464;28;20261;-77
2023/10/19 11:14:55;;;;;;;7.78;6.18;;;;;;;16.27;77.42;63676.47;5007400;28;20202;-77
2023/10/19 11:17:28;;;;;;;9.32;5.70;;;;;;;16.25;74.96;63671.84;5007250;28;20550;-78
2023/10/19 11:19:57;;;;;;;6.20;5.70;;;;;;;16.16;76.63;63660.94;5010485;28;20462;-76
2023/10/19 11:22:26;;;;;;;6.15;5.65;;;;;;;16.23;77.17;63672.31;5006324;28;20561;-76
2023/10/19 11:24:54;;;;;;;6.15;5.55;;;;;;;16.35;76.29;63685.31;5004838;28;20198;-78
2023/10/19 11:27:29;;;;;;;6.38;5.88;;;;;;;16.34;74.79;63678.63;5008948;28;20225;-77
2023/10/19 11:29:57;;;;;;;7.63;5.57;;;;;;;16.29;75.22;63676.00;5008732;28;20202;-77
2023/10/19 11:32:25;;;;;;;6.65;6.03;;;;;;;16.12;76.35;63664.50;5014785;28;20272;-76
2023/10/19 11:34:53;;;;;;;6.00;5.50;;;;;;;16.30;76.86;63685.25;5024756;28;20421;-78